West Hartford, Connecticut
Current Conditions -  °F | °C
As of 10:13 PM on Wednesday 22 Oct 2014 (Local Time) from KHFD Reporting Station
Moderate Rain Moderate Rain  
Wind Chill: 45°   Ceiling: 1500
Heat Index: 49°   Visibility: 5mi
Dew Point: 46°   Wind: 10mph
Humidity: 90%   Direction: 20°NNE
Pressure: 29.81"   Gusts: 22mph
Location:  41.76°N, 72.74°W
Report Text: KHFD 230213Z 02009G19KT 5SM RA BR OVC015 09/08 A2981 RMK AO2 LTG DSNT NW TSE07 P0009 T00940078
Loading
Personal Weather Stations






























Interactive Weather Map
Tropical Storm Tracking
New forecast layout! Learn more

10-Day Weather Forecast

Advertisements
Track Severe Weather on mobile